Beulah, Mississippi
Current Conditions -  °F | °C
As of 4:15 AM on Friday 31 Oct 2014 (Local Time) from KRNV Reporting Station
Clear Clear  
Wind Chill: 53°   Ceiling: Unl
Heat Index: 53°   Visibility: 10mi
Dew Point: 51°   Wind: 7mph
Humidity: 91%   Direction: 310°NW
Pressure: 30"   Gusts: NA
Location:  33.79°N, 90.98°W
Report Text: KRNV 310915Z AUTO 31006KT 10SM CLR 12/10 A3000 RMK AO2 T01170103
Loading
Personal Weather Stations






























Interactive Weather Map
Tropical Storm Tracking
New forecast layout! Learn more

10-Day Weather Forecast

Advertisements
Track Severe Weather on mobile